Time;durP1;ratioP1;P1;durP2;ratioP2;P2;SDS_P1;SDS_P2;PMS_P1;PMS_P2;Temp;Humidity;BMP_temperature;BMP_pressure;BME280_temperature;BME280_humidity;BME280_pressure;Samples;Min_cycle;Max_cycle;Signal;HPM_P1;HPM_P2
2021/04/27 00:01:00;;;;;;;5.78;3.33;;;4.50;99.90;;;;;;5034712;28;20699;-84
2021/04/27 00:03:26;;;;;;;7.60;3.00;;;4.40;99.90;;;;;;5027706;28;20313;-85
2021/04/27 00:05:53;;;;;;;8.30;3.53;;;4.40;99.90;;;;;;5041112;28;20106;-85
2021/04/27 00:08:19;;;;;;;6.00;3.10;;;4.40;99.90;;;;;;5046384;28;20049;-86
2021/04/27 00:10:46;;;;;;;7.97;3.30;;;4.30;99.90;;;;;;5039688;28;20120;-85
2021/04/27 00:13:12;;;;;;;8.10;4.25;;;4.30;99.90;;;;;;5027941;28;20110;-85
2021/04/27 00:15:39;;;;;;;11.10;4.07;;;4.30;99.90;;;;;;5032552;28;20061;-85
2021/04/27 00:18:05;;;;;;;7.80;3.45;;;4.30;99.90;;;;;;5029359;28;20101;-85
2021/04/27 00:20:32;;;;;;;7.90;4.22;;;4.20;99.90;;;;;;5025988;28;20099;-85
2021/04/27 00:22:59;;;;;;;5.38;2.65;;;4.20;99.90;;;;;;5032815;28;20053;-85
2021/04/27 00:25:25;;;;;;;6.97;3.03;;;4.20;99.90;;;;;;5047515;28;20049;-85
2021/04/27 00:27:54;;;;;;;9.00;3.30;;;4.20;99.90;;;;;;5045641;28;20056;-84
2021/04/27 00:30:22;;;;;;;7.65;3.00;;;4.10;99.90;;;;;;5037964;28;20080;-84
2021/04/27 00:32:49;;;;;;;11.10;3.13;;;4.10;99.90;;;;;;5051087;28;20701;-84
2021/04/27 00:35:16;;;;;;;8.05;3.03;;;4.00;99.90;;;;;;5048060;28;20045;-84
2021/04/27 00:37:43;;;;;;;5.68;3.03;;;4.00;99.90;;;;;;5034448;28;20076;-84
2021/04/27 00:40:13;;;;;;;9.98;3.83;;;4.00;99.90;;;;;;5047235;28;20084;-85
2021/04/27 00:42:42;;;;;;;6.18;3.40;;;4.00;99.90;;;;;;5031287;28;20072;-84
2021/04/27 00:45:23;;;;;;;7.78;3.95;;;3.90;99.90;;;;;;5047826;28;20053;-83
2021/04/27 00:47:50;;;;;;;5.93;3.42;;;3.90;99.90;;;;;;5049581;28;20049;-84
2021/04/27 00:50:24;;;;;;;8.48;3.45;;;3.90;99.90;;;;;;5047645;28;20036;-85
2021/04/27 00:52:52;;;;;;;8.27;4.03;;;3.90;99.90;;;;;;5035632;28;20049;-85
2021/04/27 00:55:19;;;;;;;8.20;3.47;;;3.80;99.90;;;;;;5030299;28;20099;-86
2021/04/27 00:57:45;;;;;;;5.93;3.22;;;3.80;99.90;;;;;;5028619;28;20069;-84
2021/04/27 01:00:14;;;;;;;9.02;3.67;;;3.70;99.90;;;;;;5048905;28;20049;-86
2021/04/27 01:02:41;;;;;;;9.77;3.75;;;3.70;99.90;;;;;;5032398;28;20050;-83
2021/04/27 01:05:13;;;;;;;6.93;3.58;;;3.70;99.90;;;;;;5048614;28;20054;-86
2021/04/27 01:08:09;;;;;;;5.03;2.92;;;3.70;99.90;;;;;;5028002;28;20475;-85
2021/04/27 01:10:57;;;;;;;4.78;3.60;;;3.70;99.90;;;;;;5004684;28;20061;-84
2021/04/27 01:13:57;;;;;;;5.10;3.35;;;3.60;99.90;;;;;;5032890;28;20064;-84
2021/04/27 01:16:25;;;;;;;8.05;4.30;;;3.70;99.90;;;;;;5035091;28;20060;-84
2021/04/27 01:18:53;;;;;;;10.48;3.40;;;3.60;99.90;;;;;;5038021;28;21833;-84
2021/04/27 01:21:27;;;;;;;8.32;4.15;;;3.60;99.90;;;;;;5048834;28;20091;-84
2021/04/27 01:24:01;;;;;;;10.10;3.47;;;3.60;99.90;;;;;;5045566;28;20153;-84
2021/04/27 01:26:44;;;;;;;8.15;3.35;;;3.50;99.90;;;;;;5046780;28;20121;-84
2021/04/27 01:29:13;;;;;;;11.57;3.78;;;3.50;99.90;;;;;;5058958;28;20039;-84
2021/04/27 01:31:40;;;;;;;7.10;3.70;;;3.50;99.90;;;;;;5032518;28;20055;-85
2021/04/27 01:34:08;;;;;;;5.85;3.70;;;3.50;99.90;;;;;;5031796;28;20045;-86
2021/04/27 01:36:35;;;;;;;6.18;3.85;;;3.50;99.90;;;;;;5035777;28;20044;-86
2021/04/27 01:39:07;;;;;;;10.40;3.92;;;3.40;99.90;;;;;;5024138;28;20486;-87
2021/04/27 01:41:35;;;;;;;10.57;3.55;;;3.40;99.90;;;;;;5048963;28;20052;-85
2021/04/27 01:44:04;;;;;;;7.28;3.63;;;3.40;99.90;;;;;;5025824;28;20053;-87
2021/04/27 01:46:31;;;;;;;10.02;4.07;;;3.40;99.90;;;;;;5019767;28;20105;-85
2021/04/27 01:48:59;;;;;;;9.18;4.10;;;3.40;99.90;;;;;;5031513;28;20049;-85
2021/04/27 01:51:27;;;;;;;8.75;3.67;;;3.30;99.90;;;;;;5028898;28;20052;-84
2021/04/27 01:53:54;;;;;;;10.23;4.07;;;3.30;99.90;;;;;;5041739;28;20048;-85
2021/04/27 01:56:22;;;;;;;8.60;4.07;;;3.30;99.90;;;;;;5027115;28;20541;-85
2021/04/27 01:58:49;;;;;;;7.47;3.50;;;3.30;99.90;;;;;;5037508;28;20049;-85
2021/04/27 02:01:17;;;;;;;7.88;4.50;;;3.30;99.90;;;;;;5026964;28;20452;-85
2021/04/27 02:03:46;;;;;;;7.63;3.92;;;3.30;99.90;;;;;;5057179;28;20060;-86
2021/04/27 02:06:12;;;;;;;5.50;3.50;;;3.20;99.90;;;;;;5030825;28;20069;-85
2021/04/27 02:08:41;;;;;;;7.32;3.90;;;3.20;99.90;;;;;;5044571;28;20130;-84
2021/04/27 02:11:08;;;;;;;4.95;3.85;;;3.20;99.90;;;;;;5042881;28;20059;-86
2021/04/27 02:13:34;;;;;;;11.13;4.18;;;3.20;99.90;;;;;;5032338;28;20171;-85
2021/04/27 02:16:03;;;;;;;6.85;4.18;;;3.20;99.90;;;;;;5046506;28;20044;-85
2021/04/27 02:18:39;;;;;;;8.82;4.60;;;3.20;99.90;;;;;;5045330;28;20128;-85
2021/04/27 02:21:08;;;;;;;9.02;4.53;;;3.10;99.90;;;;;;5044631;28;20404;-85
2021/04/27 02:23:35;;;;;;;12.77;4.47;;;3.10;99.90;;;;;;5019437;28;20053;-86
2021/04/27 02:26:02;;;;;;;10.38;4.07;;;3.10;99.90;;;;;;5030233;28;20124;-85
2021/04/27 02:28:30;;;;;;;8.13;4.15;;;3.10;99.90;;;;;;5028714;28;20087;-86
2021/04/27 02:30:58;;;;;;;6.13;3.97;;;3.10;99.90;;;;;;5027681;28;20049;-85
2021/04/27 02:33:25;;;;;;;8.95;4.35;;;3.10;99.90;;;;;;5031088;28;20588;-85
2021/04/27 02:35:52;;;;;;;11.57;3.97;;;3.10;99.90;;;;;;5048018;28;20108;-85
2021/04/27 02:38:23;;;;;;;6.78;4.20;;;3.10;99.90;;;;;;5049739;28;20063;-86
2021/04/27 02:40:54;;;;;;;14.35;4.82;;;3.10;99.90;;;;;;5043888;28;20121;-85
2021/04/27 02:43:22;;;;;;;8.07;4.03;;;3.10;99.90;;;;;;5032528;28;20057;-85
2021/04/27 02:45:49;;;;;;;5.90;3.72;;;3.10;99.90;;;;;;5031186;28;20135;-85
2021/04/27 02:48:20;;;;;;;8.35;4.25;;;3.10;99.90;;;;;;5027696;28;20076;-84
2021/04/27 02:50:50;;;;;;;8.10;3.95;;;3.10;99.90;;;;;;5049215;28;20122;-86
2021/04/27 02:53:17;;;;;;;7.40;4.13;;;3.10;99.90;;;;;;5046527;28;20049;-85
2021/04/27 02:55:44;;;;;;;10.40;4.70;;;3.10;99.90;;;;;;5025088;28;20053;-85
2021/04/27 02:58:11;;;;;;;6.90;4.38;;;3.10;99.90;;;;;;5029202;28;20131;-84
2021/04/27 03:00:39;;;;;;;5.65;3.90;;;3.10;99.90;;;;;;5030348;28;20408;-85
2021/04/27 03:03:06;;;;;;;9.43;4.07;;;3.10;99.90;;;;;;5036206;28;20048;-85
2021/04/27 03:05:33;;;;;;;8.77;4.22;;;3.00;99.90;;;;;;5045885;28;20488;-86
2021/04/27 03:08:07;;;;;;;6.65;4.45;;;3.00;99.90;;;;;;5031372;28;20664;-85
2021/04/27 03:10:35;;;;;;;8.23;4.55;;;3.00;99.90;;;;;;5033521;28;20037;-86
2021/04/27 03:13:02;;;;;;;8.45;4.22;;;3.00;99.90;;;;;;5046460;28;20057;-86
2021/04/27 03:15:29;;;;;;;11.32;4.25;;;3.00;99.90;;;;;;5033203;28;20063;-84
2021/04/27 03:17:55;;;;;;;11.68;3.80;;;3.00;99.90;;;;;;5030533;28;20061;-84
2021/04/27 03:20:22;;;;;;;7.63;3.78;;;3.00;99.90;;;;;;5043337;28;20084;-84
2021/04/27 03:22:48;;;;;;;7.45;4.28;;;3.00;99.90;;;;;;5046974;28;20053;-85
2021/04/27 03:25:15;;;;;;;8.80;4.05;;;2.90;99.90;;;;;;5029789;28;20056;-85
2021/04/27 03:27:41;;;;;;;6.15;3.78;;;2.90;99.90;;;;;;5027378;28;20060;-86
2021/04/27 03:30:10;;;;;;;11.20;4.57;;;2.90;99.90;;;;;;5031652;28;20128;-84
2021/04/27 03:32:36;;;;;;;8.57;3.75;;;2.90;99.90;;;;;;5026170;28;20135;-84
2021/04/27 03:35:05;;;;;;;7.70;4.82;;;2.80;99.90;;;;;;5031369;28;20460;-86
2021/04/27 03:37:31;;;;;;;10.25;4.07;;;2.80;99.90;;;;;;5049933;28;20052;-83
2021/04/27 03:39:57;;;;;;;6.80;3.80;;;2.80;99.90;;;;;;5032431;28;20075;-84
2021/04/27 03:42:24;;;;;;;14.90;5.00;;;2.70;99.90;;;;;;5043033;28;20063;-86
2021/04/27 03:44:50;;;;;;;8.70;4.15;;;2.70;99.90;;;;;;5024707;28;20069;-85
2021/04/27 03:47:17;;;;;;;13.65;4.63;;;2.70;99.90;;;;;;5027568;28;20112;-85
2021/04/27 03:49:43;;;;;;;9.02;4.30;;;2.70;99.90;;;;;;5028374;28;20475;-85
2021/04/27 03:52:10;;;;;;;8.00;4.35;;;2.70;99.90;;;;;;5044053;28;20087;-84
2021/04/27 03:54:36;;;;;;;6.25;4.13;;;2.70;99.90;;;;;;5027444;28;20133;-85
2021/04/27 03:57:03;;;;;;;11.95;4.93;;;2.60;99.90;;;;;;5048732;28;20215;-85
2021/04/27 03:59:30;;;;;;;9.43;4.45;;;2.60;99.90;;;;;;5044964;28;20054;-85
2021/04/27 04:01:56;;;;;;;16.67;4.55;;;2.60;99.90;;;;;;5031270;28;20048;-85
2021/04/27 04:04:23;;;;;;;11.43;4.90;;;2.60;99.90;;;;;;5046262;28;20049;-85
2021/04/27 04:06:50;;;;;;;12.75;5.03;;;2.50;99.90;;;;;;5036010;28;20053;-85
2021/04/27 04:09:16;;;;;;;10.20;4.85;;;2.50;99.90;;;;;;5061367;28;20116;-84
2021/04/27 04:11:43;;;;;;;10.32;4.78;;;2.50;99.90;;;;;;5042080;28;20056;-84
2021/04/27 04:14:09;;;;;;;8.25;4.57;;;2.50;99.90;;;;;;5046316;28;20029;-84
2021/04/27 04:16:36;;;;;;;11.38;4.70;;;2.40;99.90;;;;;;5065559;28;20042;-85
2021/04/27 04:19:03;;;;;;;8.43;4.18;;;2.40;99.90;;;;;;5063062;28;20112;-85
2021/04/27 04:21:30;;;;;;;7.68;4.32;;;2.40;99.90;;;;;;5064571;28;20044;-85
2021/04/27 04:23:57;;;;;;;14.63;4.88;;;2.40;99.90;;;;;;5046641;28;20188;-85
2021/04/27 04:26:23;;;;;;;11.95;5.28;;;2.40;99.90;;;;;;5056027;28;20044;-86
2021/04/27 04:28:50;;;;;;;8.98;4.60;;;2.30;99.90;;;;;;5044057;28;20056;-86
2021/04/27 04:31:17;;;;;;;12.30;5.00;;;2.30;99.90;;;;;;5052747;28;20029;-86
2021/04/27 04:33:44;;;;;;;10.00;4.78;;;2.30;99.90;;;;;;5044049;28;20090;-85
2021/04/27 04:36:10;;;;;;;14.13;5.05;;;2.30;99.90;;;;;;5045516;28;20496;-84
2021/04/27 04:38:36;;;;;;;9.80;4.60;;;2.30;99.90;;;;;;5042490;28;20096;-84
2021/04/27 04:41:03;;;;;;;12.32;5.70;;;2.30;99.90;;;;;;5050324;28;20476;-86
2021/04/27 04:43:30;;;;;;;11.20;4.93;;;2.30;99.90;;;;;;5041304;28;20049;-86
2021/04/27 04:45:56;;;;;;;8.68;5.00;;;2.30;99.90;;;;;;5037719;28;20113;-86
2021/04/27 04:48:22;;;;;;;14.25;5.15;;;2.40;99.90;;;;;;5033234;28;20049;-86
2021/04/27 04:50:49;;;;;;;9.20;5.40;;;2.30;99.90;;;;;;5035944;28;20129;-85
2021/04/27 04:53:15;;;;;;;9.07;5.00;;;2.30;99.90;;;;;;5046430;28;20072;-84
2021/04/27 04:55:42;;;;;;;12.82;5.28;;;2.30;99.90;;;;;;5050129;28;20049;-87
2021/04/27 04:58:08;;;;;;;7.45;4.72;;;2.30;99.90;;;;;;5049170;28;20136;-84
2021/04/27 05:00:35;;;;;;;13.90;5.25;;;2.40;99.90;;;;;;5049847;28;20132;-85
2021/04/27 05:03:02;;;;;;;9.05;4.80;;;2.40;99.90;;;;;;5033866;28;20127;-85
2021/04/27 05:05:28;;;;;;;13.63;4.93;;;2.40;99.90;;;;;;5039547;28;20416;-84
2021/04/27 05:08:02;;;;;;;12.75;4.90;;;2.50;99.90;;;;;;5033321;28;20076;-85
2021/04/27 05:10:28;;;;;;;11.18;5.50;;;2.50;99.90;;;;;;5033083;28;20061;-85
2021/04/27 05:12:55;;;;;;;11.95;5.93;;;2.50;99.90;;;;;;5040291;28;20094;-85
2021/04/27 05:15:21;;;;;;;9.60;5.07;;;2.60;99.90;;;;;;5052740;28;20052;-85
2021/04/27 05:17:48;;;;;;;13.25;6.43;;;2.60;99.90;;;;;;5029117;28;20049;-85
2021/04/27 05:20:16;;;;;;;11.63;5.82;;;2.70;99.90;;;;;;5029786;28;20400;-85
2021/04/27 05:22:44;;;;;;;14.55;6.03;;;2.70;99.90;;;;;;5042111;28;20052;-83
2021/04/27 05:25:12;;;;;;;9.02;5.55;;;2.70;99.90;;;;;;5045207;28;20049;-84
2021/04/27 05:27:39;;;;;;;10.10;6.00;;;2.80;99.90;;;;;;5034073;28;20053;-85
2021/04/27 05:30:06;;;;;;;12.60;5.80;;;2.90;99.90;;;;;;5047359;28;20059;-86
2021/04/27 05:32:32;;;;;;;9.63;5.10;;;3.00;99.90;;;;;;5028909;28;20118;-85
2021/04/27 05:34:59;;;;;;;21.15;6.60;;;3.10;99.90;;;;;;5031083;28;20040;-84
2021/04/27 05:37:25;;;;;;;13.13;5.95;;;3.20;99.90;;;;;;5046870;28;20056;-84
2021/04/27 05:39:51;;;;;;;9.82;4.63;;;3.30;99.90;;;;;;5036426;28;20050;-88
2021/04/27 05:42:18;;;;;;;9.70;5.00;;;3.50;99.90;;;;;;5028171;28;20109;-85
2021/04/27 05:44:44;;;;;;;10.70;5.05;;;3.80;99.90;;;;;;5030835;28;20080;-85
2021/04/27 05:47:10;;;;;;;8.90;5.40;;;4.10;99.90;;;;;;5042974;28;20059;-86
2021/04/27 05:49:37;;;;;;;8.48;4.95;;;4.50;99.90;;;;;;5026442;28;20556;-84
2021/04/27 05:52:04;;;;;;;7.78;4.78;;;4.80;99.90;;;;;;5033542;28;20045;-85
2021/04/27 05:54:34;;;;;;;12.27;5.30;;;5.10;99.90;;;;;;5046206;28;20072;-86
2021/04/27 05:57:01;;;;;;;6.38;4.47;;;5.30;99.90;;;;;;5049027;28;20065;-86
2021/04/27 05:59:27;;;;;;;7.05;5.25;;;5.30;99.90;;;;;;5020884;28;20408;-84
2021/04/27 06:01:54;;;;;;;8.93;5.00;;;5.40;99.90;;;;;;5044440;28;20088;-87
2021/04/27 06:04:20;;;;;;;6.25;4.60;;;5.40;99.90;;;;;;5042658;28;20041;-85
2021/04/27 06:06:48;;;;;;;9.15;4.68;;;5.40;99.90;;;;;;5049607;28;20052;-85
2021/04/27 06:09:16;;;;;;;11.95;4.90;;;5.40;99.90;;;;;;5032619;28;20118;-85
2021/04/27 06:11:44;;;;;;;7.38;4.80;;;5.50;99.90;;;;;;5029319;28;20051;-85
2021/04/27 06:14:10;;;;;;;8.40;4.47;;;5.50;99.90;;;;;;5037637;28;20048;-85
2021/04/27 06:16:37;;;;;;;12.13;5.15;;;5.50;99.90;;;;;;5018820;28;20108;-85
2021/04/27 06:19:04;;;;;;;7.85;4.88;;;5.60;99.90;;;;;;5045212;28;20080;-86
2021/04/27 06:21:31;;;;;;;7.57;4.80;;;5.70;99.90;;;;;;5027423;28;20053;-87
2021/04/27 06:23:58;;;;;;;11.25;5.10;;;5.80;99.90;;;;;;5042084;28;20476;-86
2021/04/27 06:26:26;;;;;;;6.93;4.30;;;6.00;99.90;;;;;;5046652;28;25411;-84
2021/04/27 06:28:52;;;;;;;11.50;4.85;;;6.10;99.90;;;;;;5023097;28;20646;-85
2021/04/27 06:31:19;;;;;;;6.85;4.63;;;6.20;99.90;;;;;;5033473;28;20049;-85
2021/04/27 06:33:46;;;;;;;9.52;4.55;;;6.30;99.90;;;;;;5032034;28;20049;-85
2021/04/27 06:36:14;;;;;;;6.70;5.00;;;6.50;99.90;;;;;;5026514;28;20092;-85
2021/04/27 06:38:43;;;;;;;6.85;4.70;;;6.60;99.90;;;;;;5043807;28;20535;-84
2021/04/27 06:41:18;;;;;;;8.13;5.10;;;6.80;99.90;;;;;;5027458;28;20048;-85
2021/04/27 06:43:52;;;;;;;6.15;4.85;;;6.80;99.90;;;;;;5027031;28;20053;-86
2021/04/27 06:46:19;;;;;;;5.63;3.97;;;6.90;99.90;;;;;;5029708;28;20072;-86
2021/04/27 06:48:46;;;;;;;6.65;4.55;;;7.10;99.90;;;;;;5041477;28;20051;-85
2021/04/27 06:51:17;;;;;;;5.18;4.10;;;7.20;99.90;;;;;;5026577;28;20052;-85
2021/04/27 06:53:44;;;;;;;5.28;3.70;;;7.30;99.90;;;;;;5014409;28;20085;-84
2021/04/27 06:56:12;;;;;;;5.32;3.80;;;7.40;99.90;;;;;;5036001;28;20080;-86
2021/04/27 06:58:38;;;;;;;6.65;4.05;;;7.50;99.90;;;;;;5026177;28;20041;-86
2021/04/27 07:01:05;;;;;;;7.32;3.97;;;7.70;99.90;;;;;;5034014;28;20083;-84
2021/04/27 07:03:33;;;;;;;5.47;3.75;;;7.80;99.90;;;;;;5027703;28;20506;-86
2021/04/27 07:06:01;;;;;;;9.35;4.00;;;7.90;99.90;;;;;;5027354;28;20234;-85
2021/04/27 07:08:28;;;;;;;6.53;4.47;;;8.00;99.90;;;;;;5029226;28;20047;-85
2021/04/27 07:10:57;;;;;;;7.35;4.13;;;8.20;99.90;;;;;;5037744;28;20037;-85
2021/04/27 07:13:25;;;;;;;6.53;4.15;;;8.20;98.70;;;;;;5034644;28;20033;-85
2021/04/27 07:15:51;;;;;;;7.20;3.80;;;8.30;98.70;;;;;;5036775;28;20053;-86
2021/04/27 07:18:18;;;;;;;6.80;3.90;;;8.40;98.40;;;;;;5041477;28;20279;-85
2021/04/27 07:20:45;;;;;;;5.32;4.30;;;8.50;98.10;;;;;;5043554;28;20076;-85
2021/04/27 07:23:11;;;;;;;7.65;4.10;;;8.60;97.90;;;;;;5023901;28;20052;-85
2021/04/27 07:25:38;;;;;;;5.68;4.20;;;8.80;98.40;;;;;;5032812;28;20052;-87
2021/04/27 07:28:05;;;;;;;8.43;4.03;;;8.90;97.10;;;;;;5026402;28;20467;-85
2021/04/27 07:30:33;;;;;;;8.30;3.83;;;9.10;96.20;;;;;;5042705;28;20752;-84
2021/04/27 07:33:04;;;;;;;4.93;3.45;;;9.20;95.30;;;;;;5037281;28;20585;-85
2021/04/27 07:35:32;;;;;;;3.08;2.78;;;9.40;93.80;;;;;;5026443;28;20506;-85
2021/04/27 07:38:01;;;;;;;3.33;3.00;;;9.60;92.00;;;;;;5035716;28;20076;-85
2021/04/27 07:40:29;;;;;;;3.65;2.95;;;9.70;90.90;;;;;;5029742;28;20432;-86
2021/04/27 07:42:56;;;;;;;9.48;3.75;;;9.90;90.00;;;;;;5027811;28;20051;-86
2021/04/27 07:45:23;;;;;;;9.27;3.70;;;10.00;87.90;;;;;;5022951;28;20488;-87
2021/04/27 07:47:52;;;;;;;4.90;3.30;;;10.00;85.00;;;;;;5019695;28;20056;-85
2021/04/27 07:50:18;;;;;;;4.30;3.88;;;10.10;84.00;;;;;;5023322;28;20506;-85
2021/04/27 07:52:45;;;;;;;6.63;3.10;;;10.30;82.10;;;;;;5035438;28;20055;-86
2021/04/27 07:55:11;;;;;;;3.58;3.08;;;10.40;83.50;;;;;;5027617;28;20064;-84
2021/04/27 07:57:38;;;;;;;4.57;2.92;;;10.50;81.10;;;;;;5007564;28;20119;-85
2021/04/27 08:00:09;;;;;;;4.43;3.08;;;10.60;80.90;;;;;;5021693;28;20057;-85
2021/04/27 08:02:36;;;;;;;5.85;3.17;;;10.80;78.60;;;;;;5042311;28;20112;-85
2021/04/27 08:05:04;;;;;;;6.07;3.25;;;10.90;75.40;;;;;;5019030;28;20053;-85
2021/04/27 08:07:30;;;;;;;5.45;3.30;;;11.00;75.80;;;;;;5021746;28;20103;-87
2021/04/27 08:10:00;;;;;;;5.85;3.60;;;11.10;75.50;;;;;;5027845;28;20467;-86
2021/04/27 08:12:27;;;;;;;7.55;3.40;;;11.20;75.20;;;;;;5030341;28;20063;-85
2021/04/27 08:14:53;;;;;;;7.28;3.60;;;11.40;72.30;;;;;;5019939;28;20137;-84
2021/04/27 08:17:20;;;;;;;7.00;3.88;;;11.60;72.60;;;;;;5039274;28;20058;-84
2021/04/27 08:19:47;;;;;;;8.52;3.60;;;11.70;70.40;;;;;;5032092;28;20049;-85
2021/04/27 08:22:14;;;;;;;5.05;3.00;;;11.70;71.10;;;;;;5038956;28;20048;-84
2021/04/27 08:24:44;;;;;;;5.18;3.45;;;11.80;70.10;;;;;;5020528;28;20135;-87
2021/04/27 08:27:12;;;;;;;4.90;3.60;;;12.00;69.50;;;;;;5040114;28;20575;-86
2021/04/27 08:29:39;;;;;;;4.35;3.20;;;12.10;71.20;;;;;;5024664;28;20065;-85
2021/04/27 08:32:06;;;;;;;6.30;3.65;;;12.30;69.50;;;;;;5040596;28;20072;-85
2021/04/27 08:34:33;;;;;;;5.15;4.15;;;12.50;67.90;;;;;;5040606;28;20053;-85
2021/04/27 08:37:00;;;;;;;7.47;3.90;;;12.60;68.50;;;;;;5033436;28;20053;-84
2021/04/27 08:39:26;;;;;;;5.72;3.40;;;12.70;68.10;;;;;;5024852;28;20440;-85
2021/04/27 08:41:53;;;;;;;5.82;3.83;;;12.80;66.70;;;;;;5040980;28;20114;-85
2021/04/27 08:44:21;;;;;;;6.18;3.83;;;12.80;67.10;;;;;;5034387;28;20060;-86
2021/04/27 08:46:48;;;;;;;8.75;3.38;;;12.90;68.10;;;;;;5038201;28;20049;-84
2021/04/27 08:49:15;;;;;;;4.38;3.33;;;13.00;70.40;;;;;;5041945;28;20059;-85
2021/04/27 08:51:42;;;;;;;5.70;3.28;;;13.10;68.00;;;;;;5037439;28;20099;-85
2021/04/27 08:54:18;;;;;;;3.88;3.47;;;13.30;66.40;;;;;;5031640;28;20056;-84
2021/04/27 08:56:46;;;;;;;6.03;3.42;;;13.40;67.60;;;;;;5040631;28;20104;-85
2021/04/27 08:59:13;;;;;;;5.22;3.22;;;13.60;67.40;;;;;;5045946;28;20052;-86
2021/04/27 09:01:40;;;;;;;5.72;3.35;;;13.70;62.90;;;;;;5039304;28;20481;-86
2021/04/27 09:04:07;;;;;;;3.63;3.08;;;13.80;62.80;;;;;;5043356;28;20045;-84
2021/04/27 09:06:33;;;;;;;5.65;3.10;;;13.90;60.80;;;;;;5042052;28;20080;-87
2021/04/27 09:09:00;;;;;;;5.93;2.80;;;14.00;59.90;;;;;;5039154;28;20060;-86
2021/04/27 09:11:38;;;;;;;5.47;3.63;;;14.10;58.40;;;;;;5036512;28;20080;-86
2021/04/27 09:14:20;;;;;;;5.88;3.38;;;14.10;58.70;;;;;;5013594;28;20075;-86
2021/04/27 09:16:52;;;;;;;5.50;2.83;;;14.20;57.50;;;;;;5024085;28;21136;-85
2021/04/27 09:19:47;;;;;;;7.40;3.30;;;14.30;56.70;;;;;;5045953;28;20519;-86
2021/04/27 09:22:15;;;;;;;4.55;3.10;;;14.40;57.00;;;;;;5033251;28;20088;-84
2021/04/27 09:24:47;;;;;;;6.07;3.10;;;14.50;58.20;;;;;;5048798;28;20114;-85
2021/04/27 09:27:31;;;;;;;4.63;3.03;;;14.70;56.30;;;;;;5026008;28;20048;-85
2021/04/27 09:30:09;;;;;;;4.50;2.85;;;14.70;55.10;;;;;;5037289;28;20076;-85
2021/04/27 09:32:41;;;;;;;4.95;3.05;;;14.70;51.80;;;;;;5043034;28;20060;-85
2021/04/27 09:35:26;;;;;;;4.80;2.60;;;14.80;51.10;;;;;;5042376;28;20067;-85
2021/04/27 09:38:17;;;;;;;4.40;2.47;;;14.80;52.70;;;;;;5039562;28;20049;-85
2021/04/27 09:41:00;;;;;;;6.80;2.75;;;14.70;50.50;;;;;;5048016;28;20489;-85
2021/04/27 09:43:38;;;;;;;5.00;2.80;;;14.70;51.00;;;;;;5033494;28;20084;-84
2021/04/27 09:46:11;;;;;;;7.85;2.80;;;14.70;50.60;;;;;;5037829;28;20408;-85
2021/04/27 09:48:41;;;;;;;22.45;3.33;;;14.80;53.80;;;;;;5036559;28;20044;-86
2021/04/27 09:51:33;;;;;;;10.02;2.30;;;14.90;49.40;;;;;;5026343;28;20046;-86
2021/04/27 09:54:04;;;;;;;5.75;2.80;;;15.00;49.60;;;;;;5047680;28;20460;-86
2021/04/27 09:56:51;;;;;;;4.68;2.40;;;15.00;50.10;;;;;;5041343;28;20099;-87
2021/04/27 09:59:31;;;;;;;2.85;2.28;;;15.00;50.60;;;;;;5027421;28;20487;-85
2021/04/27 10:02:04;;;;;;;5.88;2.70;;;15.20;52.40;;;;;;5030058;28;20144;-84
2021/04/27 10:04:30;;;;;;;5.70;2.78;;;15.40;50.80;;;;;;5042220;28;20049;-87
2021/04/27 10:07:18;;;;;;;5.50;2.95;;;15.50;49.20;;;;;;5040420;28;20045;-85
2021/04/27 10:09:48;;;;;;;2.40;2.15;;;15.50;49.20;;;;;;5029040;28;20085;-86
2021/04/27 10:12:17;;;;;;;5.95;2.35;;;15.50;50.30;;;;;;5025657;28;20159;-85
2021/04/27 10:14:45;;;;;;;4.63;2.30;;;15.50;49.00;;;;;;5045870;28;20059;-86
2021/04/27 10:17:16;;;;;;;3.80;2.03;;;15.60;48.70;;;;;;5040780;28;20136;-85
2021/04/27 10:19:43;;;;;;;9.73;2.90;;;15.60;48.30;;;;;;5038155;28;20144;-88
2021/04/27 10:22:11;;;;;;;5.28;2.83;;;15.50;47.30;;;;;;5027256;28;20060;-85
2021/04/27 10:24:39;;;;;;;4.45;2.53;;;15.60;48.70;;;;;;5016888;28;20672;-85
2021/04/27 10:27:08;;;;;;;9.90;3.00;;;15.60;47.00;;;;;;5026865;28;20458;-86
2021/04/27 10:29:34;;;;;;;9.98;2.30;;;15.60;49.60;;;;;;5024249;28;20132;-87
2021/04/27 10:32:17;;;;;;;2.78;2.38;;;15.80;47.30;;;;;;5033686;28;20064;-85
2021/04/27 10:34:59;;;;;;;5.10;2.13;;;15.90;49.50;;;;;;5023867;28;20057;-88
2021/04/27 10:37:45;;;;;;;3.72;2.40;;;16.10;48.50;;;;;;5026985;28;20283;-85
2021/04/27 10:40:13;;;;;;;4.32;2.78;;;16.30;46.90;;;;;;5029982;28;20097;-87
2021/04/27 10:42:39;;;;;;;2.58;2.20;;;16.40;45.00;;;;;;5027998;28;20053;-86
2021/04/27 10:45:07;;;;;;;3.88;2.67;;;16.50;45.60;;;;;;5023879;28;20045;-85
2021/04/27 10:47:42;;;;;;;4.63;2.33;;;16.40;46.00;;;;;;5023349;28;20056;-86
2021/04/27 10:50:29;;;;;;;4.30;2.78;;;16.50;48.00;;;;;;5029387;28;20053;-86
2021/04/27 10:53:30;;;;;;;7.90;2.95;;;16.70;46.00;;;;;;5026217;28;20048;-86
2021/04/27 10:55:57;;;;;;;3.00;2.70;;;16.80;44.90;;;;;;5018199;28;20049;-87
2021/04/27 10:58:44;;;;;;;5.18;2.88;;;16.90;44.80;;;;;;5037259;28;20052;-85
2021/04/27 11:01:20;;;;;;;5.00;3.28;;;17.00;44.80;;;;;;5039410;28;20045;-86
2021/04/27 11:03:51;;;;;;;12.60;2.25;;;17.00;45.10;;;;;;5031039;28;20059;-85
2021/04/27 11:06:18;;;;;;;3.65;2.40;;;17.10;45.70;;;;;;5033173;28;20087;-85
2021/04/27 11:08:46;;;;;;;2.80;2.08;;;17.20;44.60;;;;;;5026066;28;20095;-86
2021/04/27 11:11:26;;;;;;;3.97;2.83;;;17.30;44.20;;;;;;5019836;28;20061;-85
2021/04/27 11:14:13;;;;;;;4.18;2.35;;;17.40;43.10;;;;;;5034386;28;20176;-85
2021/04/27 11:16:41;;;;;;;10.52;3.53;;;17.40;43.20;;;;;;5021915;28;20153;-86
2021/04/27 11:19:31;;;;;;;3.42;2.30;;;17.20;44.00;;;;;;5027679;28;21356;-86
2021/04/27 11:22:18;;;;;;;3.42;2.78;;;17.30;43.20;;;;;;5012668;28;20076;-85
2021/04/27 11:24:46;;;;;;;5.32;3.25;;;17.30;42.20;;;;;;5024588;28;20045;-86
2021/04/27 11:27:45;;;;;;;2.90;2.30;;;17.30;42.50;;;;;;5025564;28;20045;-86
2021/04/27 11:30:16;;;;;;;3.65;2.83;;;17.30;44.70;;;;;;5017137;28;20049;-87
2021/04/27 11:32:46;;;;;;;7.80;3.05;;;17.60;42.80;;;;;;5029239;28;20048;-86
2021/04/27 11:35:20;;;;;;;7.07;2.88;;;17.70;43.70;;;;;;5024941;28;20507;-86
2021/04/27 11:37:53;;;;;;;6.63;2.88;;;17.70;42.60;;;;;;5039551;28;20075;-85
2021/04/27 11:40:33;;;;;;;4.65;2.70;;;18.00;43.90;;;;;;5033344;28;20061;-86
2021/04/27 11:43:11;;;;;;;3.80;2.65;;;18.10;41.80;;;;;;5043490;28;20038;-86
2021/04/27 11:45:44;;;;;;;3.33;2.72;;;18.20;41.10;;;;;;5041621;28;20060;-86
2021/04/27 11:48:17;;;;;;;8.93;2.95;;;18.20;42.20;;;;;;5038507;28;20055;-84
2021/04/27 11:50:44;;;;;;;;;;;18.20;40.70;;;;;;5040345;28;20045;-86
2021/04/27 11:53:16;;;;;;;2.65;2.38;;;18.30;41.70;;;;;;5037030;28;19904;-86
2021/04/27 11:55:46;;;;;;;3.08;2.47;;;18.60;40.80;;;;;;5036977;28;20049;-86
2021/04/27 11:58:32;;;;;;;7.68;2.97;;;19.00;42.10;;;;;;5025108;28;20102;-86
2021/04/27 12:01:07;;;;;;;9.82;2.88;;;19.20;38.20;;;;;;5038288;28;20057;-87
2021/04/27 12:03:41;;;;;;;7.03;2.60;;;19.10;37.90;;;;;;5039015;28;20398;-87
2021/04/27 12:06:16;;;;;;;;;;;19.30;40.20;;;;;;5027470;28;20051;-86
2021/04/27 12:08:44;;;;;;;5.00;2.60;;;19.70;39.60;;;;;;5024601;28;20007;-87
2021/04/27 12:11:30;;;;;;;3.60;2.50;;;20.20;40.10;;;;;;5023218;28;20127;-86
2021/04/27 12:14:15;;;;;;;2.85;2.63;;;20.70;39.70;;;;;;5009863;28;20079;-86
2021/04/27 12:16:44;;;;;;;9.43;2.83;;;21.30;36.90;;;;;;5039827;28;20076;-86
2021/04/27 12:19:18;;;;;;;2.47;2.28;;;21.60;35.00;;;;;;5037589;28;20129;-86
2021/04/27 12:21:58;;;;;;;4.13;3.05;;;21.70;34.40;;;;;;5027961;28;20056;-85
2021/04/27 12:24:38;;;;;;;3.08;2.75;;;21.70;35.50;;;;;;5026569;28;20049;-85
2021/04/27 12:27:15;;;;;;;3.13;2.83;;;21.90;36.40;;;;;;5031265;28;20049;-87
2021/04/27 12:29:53;;;;;;;4.70;2.72;;;22.40;35.70;;;;;;5029138;28;20141;-86
2021/04/27 12:32:27;;;;;;;2.97;2.70;;;23.10;33.90;;;;;;5031961;28;20493;-86
2021/04/27 12:34:57;;;;;;;3.55;2.78;;;23.60;33.70;;;;;;5036888;28;20063;-86
2021/04/27 12:37:26;;;;;;;6.38;3.40;;;24.10;33.10;;;;;;5029831;28;20053;-86
2021/04/27 12:39:53;;;;;;;2.80;2.58;;;24.30;32.40;;;;;;5045052;28;20477;-86
2021/04/27 12:42:28;;;;;;;4.30;2.75;;;24.30;31.80;;;;;;5040550;28;20045;-87
2021/04/27 12:44:56;;;;;;;3.22;2.30;;;24.40;32.90;;;;;;5044542;28;20139;-87
2021/04/27 12:47:28;;;;;;;4.13;2.72;;;24.90;31.00;;;;;;5044783;28;20161;-86
2021/04/27 12:50:05;;;;;;;9.30;3.00;;;25.00;30.70;;;;;;5032208;28;20053;-86
2021/04/27 12:52:34;;;;;;;2.97;2.63;;;25.10;30.90;;;;;;5030639;28;20053;-86
2021/04/27 12:55:25;;;;;;;5.72;2.50;;;25.10;29.90;;;;;;5037720;28;20053;-87
2021/04/27 12:58:08;;;;;;;2.80;2.22;;;25.30;31.00;;;;;;5044076;28;20049;-85
2021/04/27 13:00:46;;;;;;;7.20;2.50;;;25.50;31.30;;;;;;5028892;28;20095;-86
2021/04/27 13:03:15;;;;;;;3.05;2.40;;;25.90;30.50;;;;;;5043982;28;20102;-85
2021/04/27 13:05:41;;;;;;;2.65;2.42;;;26.20;31.10;;;;;;5028398;28;20053;-85